sensor_id;sensor_type;location;lat;lon;timestamp;pressure;altitude;pressure_sealevel;temperature
15544;BMP180;7873;52.230;12.856;2022-07-15T00:01:59;101037.34;;;25.98
15544;BMP180;7873;52.230;12.856;2022-07-15T00:04:26;101040.22;;;25.96
15544;BMP180;7873;52.230;12.856;2022-07-15T00:06:52;101042.94;;;25.96
15544;BMP180;7873;52.230;12.856;2022-07-15T00:09:20;101048.53;;;25.95
15544;BMP180;7873;52.230;12.856;2022-07-15T00:12:08;101047.88;;;25.93
15544;BMP180;7873;52.230;12.856;2022-07-15T00:14:35;101038.75;;;25.94
15544;BMP180;7873;52.230;12.856;2022-07-15T00:17:02;101045.84;;;25.95
15544;BMP180;7873;52.230;12.856;2022-07-15T00:19:28;101036.06;;;25.94
15544;BMP180;7873;52.230;12.856;2022-07-15T00:21:56;101044.16;;;25.94
15544;BMP180;7873;52.230;12.856;2022-07-15T00:24:24;101047.69;;;25.94
15544;BMP180;7873;52.230;12.856;2022-07-15T00:26:50;101042.88;;;25.90
15544;BMP180;7873;52.230;12.856;2022-07-15T00:29:17;101048.28;;;25.90
15544;BMP180;7873;52.230;12.856;2022-07-15T00:31:44;101043.91;;;25.89
15544;BMP180;7873;52.230;12.856;2022-07-15T00:34:11;101051.13;;;25.88
15544;BMP180;7873;52.230;12.856;2022-07-15T00:36:37;101041.38;;;25.87
15544;BMP180;7873;52.230;12.856;2022-07-15T00:39:05;101047.78;;;25.86
15544;BMP180;7873;52.230;12.856;2022-07-15T00:41:36;101051.31;;;25.87
15544;BMP180;7873;52.230;12.856;2022-07-15T00:44:03;101054.22;;;25.85
15544;BMP180;7873;52.230;12.856;2022-07-15T00:46:31;101056.06;;;25.85
15544;BMP180;7873;52.230;12.856;2022-07-15T00:48:58;101051.53;;;25.85
15544;BMP180;7873;52.230;12.856;2022-07-15T00:51:25;101055.38;;;25.83
15544;BMP180;7873;52.230;12.856;2022-07-15T00:53:54;101057.94;;;25.84
15544;BMP180;7873;52.230;12.856;2022-07-15T00:56:23;101049.84;;;25.84
15544;BMP180;7873;52.230;12.856;2022-07-15T00:58:53;101060.63;;;25.84
15544;BMP180;7873;52.230;12.856;2022-07-15T01:01:20;101050.88;;;25.83
15544;BMP180;7873;52.230;12.856;2022-07-15T01:03:48;101057.94;;;25.84
15544;BMP180;7873;52.230;12.856;2022-07-15T01:06:14;101058.97;;;25.83
15544;BMP180;7873;52.230;12.856;2022-07-15T01:08:41;101057.25;;;25.82
15544;BMP180;7873;52.230;12.856;2022-07-15T01:11:08;101055.59;;;25.81
15544;BMP180;7873;52.230;12.856;2022-07-15T01:13:35;101062.66;;;25.82
15544;BMP180;7873;52.230;12.856;2022-07-15T01:16:04;101054.75;;;25.81
15544;BMP180;7873;52.230;12.856;2022-07-15T01:18:30;101061.16;;;25.80
15544;BMP180;7873;52.230;12.856;2022-07-15T01:20:58;101056.78;;;25.79
15544;BMP180;7873;52.230;12.856;2022-07-15T01:23:25;101062.19;;;25.79
15544;BMP180;7873;52.230;12.856;2022-07-15T01:25:52;101066.75;;;25.78
15544;BMP180;7873;52.230;12.856;2022-07-15T01:28:19;101064.06;;;25.78
15544;BMP180;7873;52.230;12.856;2022-07-15T01:30:46;101062.19;;;25.79
15544;BMP180;7873;52.230;12.856;2022-07-15T01:33:13;101066.75;;;25.78
15544;BMP180;7873;52.230;12.856;2022-07-15T01:35:40;101070.50;;;25.77
15544;BMP180;7873;52.230;12.856;2022-07-15T01:38:08;101075.69;;;25.79
15544;BMP180;7873;52.230;12.856;2022-07-15T01:40:35;101072.16;;;25.78
15544;BMP180;7873;52.230;12.856;2022-07-15T01:43:02;101075.88;;;25.77
15544;BMP180;7873;52.230;12.856;2022-07-15T01:45:29;101070.00;;;25.74
15544;BMP180;7873;52.230;12.856;2022-07-15T01:47:55;101074.38;;;25.75
15544;BMP180;7873;52.230;12.856;2022-07-15T01:50:22;101072.06;;;25.72
15544;BMP180;7873;52.230;12.856;2022-07-15T01:52:48;101069.38;;;25.72
15544;BMP180;7873;52.230;12.856;2022-07-15T01:55:18;101075.56;;;25.72
15544;BMP180;7873;52.230;12.856;2022-07-15T01:57:44;101073.09;;;25.71
15544;BMP180;7873;52.230;12.856;2022-07-15T02:00:12;101069.38;;;25.72
15544;BMP180;7873;52.230;12.856;2022-07-15T02:02:41;101078.28;;;25.72
15544;BMP180;7873;52.230;12.856;2022-07-15T02:05:08;101072.22;;;25.70
15544;BMP180;7873;52.230;12.856;2022-07-15T02:07:35;101068.72;;;25.70
15544;BMP180;7873;52.230;12.856;2022-07-15T02:10:02;101069.75;;;25.69
15544;BMP180;7873;52.230;12.856;2022-07-15T02:12:31;101067.03;;;25.69
15544;BMP180;7873;52.230;12.856;2022-07-15T02:14:57;101074.09;;;25.70
15544;BMP180;7873;52.230;12.856;2022-07-15T02:17:24;101074.47;;;25.67
15544;BMP180;7873;52.230;12.856;2022-07-15T02:19:51;101075.13;;;25.69
15544;BMP180;7873;52.230;12.856;2022-07-15T02:22:17;101076.16;;;25.68
15544;BMP180;7873;52.230;12.856;2022-07-15T02:24:44;101079.88;;;25.67
15544;BMP180;7873;52.230;12.856;2022-07-15T02:27:11;101079.69;;;25.68
15544;BMP180;7873;52.230;12.856;2022-07-15T02:29:39;101085.06;;;25.68
15544;BMP180;7873;52.230;12.856;2022-07-15T02:32:06;101081.34;;;25.69
15544;BMP180;7873;52.230;12.856;2022-07-15T02:34:32;101087.59;;;25.70
15544;BMP180;7873;52.230;12.856;2022-07-15T02:36:59;101089.28;;;25.71
15544;BMP180;7873;52.230;12.856;2022-07-15T02:39:26;101088.41;;;25.70
15544;BMP180;7873;52.230;12.856;2022-07-15T02:41:52;101081.56;;;25.68
15544;BMP180;7873;52.230;12.856;2022-07-15T02:44:19;101092.72;;;25.65
15544;BMP180;7873;52.230;12.856;2022-07-15T02:46:47;101089.34;;;25.63
15544;BMP180;7873;52.230;12.856;2022-07-15T02:49:14;101083.94;;;25.63
15544;BMP180;7873;52.230;12.856;2022-07-15T02:51:40;101089.34;;;25.63
15544;BMP180;7873;52.230;12.856;2022-07-15T02:54:07;101089.53;;;25.61
15544;BMP180;7873;52.230;12.856;2022-07-15T02:56:34;101100.13;;;25.63
15544;BMP180;7873;52.230;12.856;2022-07-15T02:59:00;101096.78;;;25.61
15544;BMP180;7873;52.230;12.856;2022-07-15T03:01:27;101100.34;;;25.61
15544;BMP180;7873;52.230;12.856;2022-07-15T03:03:55;101096.78;;;25.61
15544;BMP180;7873;52.230;12.856;2022-07-15T03:06:22;101101.16;;;25.62
15544;BMP180;7873;52.230;12.856;2022-07-15T03:08:48;101104.06;;;25.60
15544;BMP180;7873;52.230;12.856;2022-07-15T03:11:15;101096.97;;;25.59
15544;BMP180;7873;52.230;12.856;2022-07-15T03:13:42;101103.41;;;25.58
15544;BMP180;7873;52.230;12.856;2022-07-15T03:16:08;101114.19;;;25.58
15544;BMP180;7873;52.230;12.856;2022-07-15T03:18:35;101115.00;;;25.59
15544;BMP180;7873;52.230;12.856;2022-07-15T03:21:03;101115.22;;;25.58
15544;BMP180;7873;52.230;12.856;2022-07-15T03:23:30;101117.06;;;25.57
15544;BMP180;7873;52.230;12.856;2022-07-15T03:25:57;101119.97;;;25.56
15544;BMP180;7873;52.230;12.856;2022-07-15T03:28:24;101127.19;;;25.55
15544;BMP180;7873;52.230;12.856;2022-07-15T03:30:50;101123.47;;;25.56
15544;BMP180;7873;52.230;12.856;2022-07-15T03:33:17;101128.22;;;25.54
15544;BMP180;7873;52.230;12.856;2022-07-15T03:35:44;101128.59;;;25.51
15544;BMP180;7873;52.230;12.856;2022-07-15T03:38:12;101126.53;;;25.53
15544;BMP180;7873;52.230;12.856;2022-07-15T03:40:38;101132.59;;;25.55
15544;BMP180;7873;52.230;12.856;2022-07-15T03:43:05;101133.44;;;25.56
15544;BMP180;7873;52.230;12.856;2022-07-15T03:45:32;101134.47;;;25.55
15544;BMP180;7873;52.230;12.856;2022-07-15T03:47:59;101137.50;;;25.52
15544;BMP180;7873;52.230;12.856;2022-07-15T03:50:25;101128.59;;;25.51
15544;BMP180;7873;52.230;12.856;2022-07-15T03:52:52;101138.72;;;25.49
15544;BMP180;7873;52.230;12.856;2022-07-15T03:55:20;101136.03;;;25.49
15544;BMP180;7873;52.230;12.856;2022-07-15T03:57:47;101136.84;;;25.50
15544;BMP180;7873;52.230;12.856;2022-07-15T04:00:14;101142.44;;;25.48
15544;BMP180;7873;52.230;12.856;2022-07-15T04:02:41;101131.47;;;25.50
15544;BMP180;7873;52.230;12.856;2022-07-15T04:05:08;101141.97;;;25.59
15544;BMP180;7873;52.230;12.856;2022-07-15T04:07:35;101143.28;;;25.63
15544;BMP180;7873;52.230;12.856;2022-07-15T04:10:03;101135.41;;;25.61
15544;BMP180;7873;52.230;12.856;2022-07-15T04:12:31;101145.81;;;25.64
15544;BMP180;7873;52.230;12.856;2022-07-15T04:14:58;101142.94;;;25.66
15544;BMP180;7873;52.230;12.856;2022-07-15T04:17:24;101139.22;;;25.67
15544;BMP180;7873;52.230;12.856;2022-07-15T04:19:51;101137.34;;;25.67
15544;BMP180;7873;52.230;12.856;2022-07-15T04:22:18;101146.09;;;25.69
15544;BMP180;7873;52.230;12.856;2022-07-15T04:24:45;101150.47;;;25.70
15544;BMP180;7873;52.230;12.856;2022-07-15T04:27:12;101147.97;;;25.69
15544;BMP180;7873;52.230;12.856;2022-07-15T04:29:40;101151.38;;;25.63
15544;BMP180;7873;52.230;12.856;2022-07-15T04:32:07;101156.31;;;25.59
15544;BMP180;7873;52.230;12.856;2022-07-15T04:34:34;101157.41;;;25.51
15544;BMP180;7873;52.230;12.856;2022-07-15T04:37:01;101157.97;;;25.46
15544;BMP180;7873;52.230;12.856;2022-07-15T04:39:28;101158.13;;;25.45
15544;BMP180;7873;52.230;12.856;2022-07-15T04:41:54;101153.59;;;25.45
15544;BMP180;7873;52.230;12.856;2022-07-15T04:44:21;101163.00;;;25.49
15544;BMP180;7873;52.230;12.856;2022-07-15T04:46:49;101154.06;;;25.49
15544;BMP180;7873;52.230;12.856;2022-07-15T04:49:16;101161.13;;;25.50
15544;BMP180;7873;52.230;12.856;2022-07-15T04:52:00;101158.63;;;25.48
15544;BMP180;7873;52.230;12.856;2022-07-15T04:54:27;101156.09;;;25.47
15544;BMP180;7873;52.230;12.856;2022-07-15T04:56:53;101156.09;;;25.47
15544;BMP180;7873;52.230;12.856;2022-07-15T04:59:20;101157.13;;;25.46
15544;BMP180;7873;52.230;12.856;2022-07-15T05:01:48;101165.22;;;25.46
15544;BMP180;7873;52.230;12.856;2022-07-15T05:04:15;101163.38;;;25.46
15544;BMP180;7873;52.230;12.856;2022-07-15T05:06:41;101165.56;;;25.43
15544;BMP180;7873;52.230;12.856;2022-07-15T05:09:08;101172.00;;;25.42
15544;BMP180;7873;52.230;12.856;2022-07-15T05:11:35;101171.34;;;25.40
15544;BMP180;7873;52.230;12.856;2022-07-15T05:14:02;101167.78;;;25.39
15544;BMP180;7873;52.230;12.856;2022-07-15T05:16:29;101174.84;;;25.40
15544;BMP180;7873;52.230;12.856;2022-07-15T05:18:57;101178.56;;;25.39
15544;BMP180;7873;52.230;12.856;2022-07-15T05:21:24;101186.22;;;25.36
15544;BMP180;7873;52.230;12.856;2022-07-15T05:23:51;101180.72;;;25.44
15544;BMP180;7873;52.230;12.856;2022-07-15T05:26:18;101181.88;;;25.49
15544;BMP180;7873;52.230;12.856;2022-07-15T05:28:45;101187.38;;;25.56
15544;BMP180;7873;52.230;12.856;2022-07-15T05:31:11;101187.38;;;25.56
15544;BMP180;7873;52.230;12.856;2022-07-15T05:33:38;101190.06;;;25.56
15544;BMP180;7873;52.230;12.856;2022-07-15T05:36:10;101190.91;;;25.56
15544;BMP180;7873;52.230;12.856;2022-07-15T05:38:37;101187.19;;;25.57
15544;BMP180;7873;52.230;12.856;2022-07-15T05:41:04;101182.69;;;25.50
15544;BMP180;7873;52.230;12.856;2022-07-15T05:43:30;101187.06;;;25.51
15544;BMP180;7873;52.230;12.856;2022-07-15T05:45:57;101192.47;;;25.51
15544;BMP180;7873;52.230;12.856;2022-07-15T05:48:24;101182.91;;;25.48
15544;BMP180;7873;52.230;12.856;2022-07-15T05:50:50;101184.56;;;25.49
15544;BMP180;7873;52.230;12.856;2022-07-15T05:53:19;101195.47;;;25.56
15544;BMP180;7873;52.230;12.856;2022-07-15T05:55:45;101196.78;;;25.59
15544;BMP180;7873;52.230;12.856;2022-07-15T05:58:12;101206.34;;;25.62
15544;BMP180;7873;52.230;12.856;2022-07-15T06:00:39;101206.19;;;25.63
15544;BMP180;7873;52.230;12.856;2022-07-15T06:03:06;101201.44;;;25.65
15544;BMP180;7873;52.230;12.856;2022-07-15T06:05:32;101207.84;;;25.64
15544;BMP180;7873;52.230;12.856;2022-07-15T06:08:00;101206.84;;;25.65
15544;BMP180;7873;52.230;12.856;2022-07-15T06:10:28;101209.34;;;25.67
15544;BMP180;7873;52.230;12.856;2022-07-15T06:12:55;101202.09;;;25.67
15544;BMP180;7873;52.230;12.856;2022-07-15T06:15:22;101202.63;;;25.63
15544;BMP180;7873;52.230;12.856;2022-07-15T06:17:49;101210.38;;;25.66
15544;BMP180;7873;52.230;12.856;2022-07-15T06:20:16;101208.50;;;25.66
15544;BMP180;7873;52.230;12.856;2022-07-15T06:22:43;101211.19;;;25.66
15544;BMP180;7873;52.230;12.856;2022-07-15T06:25:11;101213.09;;;25.66
15544;BMP180;7873;52.230;12.856;2022-07-15T06:27:39;101221.16;;;25.66
15544;BMP180;7873;52.230;12.856;2022-07-15T06:30:07;101222.00;;;25.66
15544;BMP180;7873;52.230;12.856;2022-07-15T06:32:35;101227.38;;;25.66
15544;BMP180;7873;52.230;12.856;2022-07-15T06:35:02;101221.16;;;25.66
15544;BMP180;7873;52.230;12.856;2022-07-15T06:37:29;101223.66;;;25.67
15544;BMP180;7873;52.230;12.856;2022-07-15T06:39:56;101223.66;;;25.67
15544;BMP180;7873;52.230;12.856;2022-07-15T06:42:23;101235.31;;;25.68
15544;BMP180;7873;52.230;12.856;2022-07-15T06:44:51;101227.03;;;25.69
15544;BMP180;7873;52.230;12.856;2022-07-15T06:47:18;101214.38;;;25.70
15544;BMP180;7873;52.230;12.856;2022-07-15T06:49:44;101226.00;;;25.70
15544;BMP180;7873;52.230;12.856;2022-07-15T06:52:11;101233.28;;;25.70
15544;BMP180;7873;52.230;12.856;2022-07-15T06:54:38;101237.66;;;25.71
15544;BMP180;7873;52.230;12.856;2022-07-15T06:57:05;101241.34;;;25.70
15544;BMP180;7873;52.230;12.856;2022-07-15T06:59:31;101244.22;;;25.68
15544;BMP180;7873;52.230;12.856;2022-07-15T07:02:00;101243.22;;;25.69
15544;BMP180;7873;52.230;12.856;2022-07-15T07:04:26;101245.09;;;25.69
15544;BMP180;7873;52.230;12.856;2022-07-15T07:06:53;101242.38;;;25.69
15544;BMP180;7873;52.230;12.856;2022-07-15T07:09:20;101244.06;;;25.70
15544;BMP180;7873;52.230;12.856;2022-07-15T07:11:47;101241.34;;;25.70
15544;BMP180;7873;52.230;12.856;2022-07-15T07:14:13;101249.47;;;25.70
15544;BMP180;7873;52.230;12.856;2022-07-15T07:16:40;101255.50;;;25.72
15544;BMP180;7873;52.230;12.856;2022-07-15T07:19:08;101244.88;;;25.70
15544;BMP180;7873;52.230;12.856;2022-07-15T07:21:35;101251.13;;;25.71
15544;BMP180;7873;52.230;12.856;2022-07-15T07:24:02;101244.06;;;25.70
15544;BMP180;7873;52.230;12.856;2022-07-15T07:26:29;101241.53;;;25.68
15544;BMP180;7873;52.230;12.856;2022-07-15T07:28:56;101241.16;;;25.71
15544;BMP180;7873;52.230;12.856;2022-07-15T07:31:22;101249.09;;;25.73
15544;BMP180;7873;52.230;12.856;2022-07-15T07:33:53;101242.84;;;25.72
15544;BMP180;7873;52.230;12.856;2022-07-15T07:36:22;101249.25;;;25.71
15544;BMP180;7873;52.230;12.856;2022-07-15T07:38:49;101242.19;;;25.70
15544;BMP180;7873;52.230;12.856;2022-07-15T07:41:15;101239.31;;;25.72
15544;BMP180;7873;52.230;12.856;2022-07-15T07:43:42;101244.72;;;25.72
15544;BMP180;7873;52.230;12.856;2022-07-15T07:46:10;101249.09;;;25.73
15544;BMP180;7873;52.230;12.856;2022-07-15T07:48:37;101248.88;;;25.74
15544;BMP180;7873;52.230;12.856;2022-07-15T07:51:04;101255.38;;;25.65
15544;BMP180;7873;52.230;12.856;2022-07-15T07:53:33;101258.25;;;25.64
15544;BMP180;7873;52.230;12.856;2022-07-15T07:55:59;101252.13;;;25.56
15544;BMP180;7873;52.230;12.856;2022-07-15T07:58:26;101257.47;;;25.41
15544;BMP180;7873;52.230;12.856;2022-07-15T08:00:53;101255.81;;;25.32
15544;BMP180;7873;52.230;12.856;2022-07-15T08:03:21;101245.22;;;25.31
15544;BMP180;7873;52.230;12.856;2022-07-15T08:05:48;101256.72;;;25.25
15544;BMP180;7873;52.230;12.856;2022-07-15T08:08:16;101253.72;;;25.20
15544;BMP180;7873;52.230;12.856;2022-07-15T08:10:46;101255.41;;;25.21
15544;BMP180;7873;52.230;12.856;2022-07-15T08:13:13;101246.78;;;25.17
15544;BMP180;7873;52.230;12.856;2022-07-15T08:15:40;101248.00;;;25.15
15544;BMP180;7873;52.230;12.856;2022-07-15T08:18:07;101246.47;;;25.12
15544;BMP180;7873;52.230;12.856;2022-07-15T08:20:34;101239.41;;;25.11
15544;BMP180;7873;52.230;12.856;2022-07-15T08:23:01;101244.16;;;25.09
15544;BMP180;7873;52.230;12.856;2022-07-15T08:25:30;101234.75;;;25.05
15544;BMP180;7873;52.230;12.856;2022-07-15T08:27:59;101238.81;;;25.01
15544;BMP180;7873;52.230;12.856;2022-07-15T08:30:26;101243.00;;;25.04
15544;BMP180;7873;52.230;12.856;2022-07-15T08:32:53;101246.06;;;25.01
15544;BMP180;7873;52.230;12.856;2022-07-15T08:35:21;101243.19;;;25.02
15544;BMP180;7873;52.230;12.856;2022-07-15T08:37:48;101246.59;;;24.96
15544;BMP180;7873;52.230;12.856;2022-07-15T08:40:15;101253.34;;;24.92
15544;BMP180;7873;52.230;12.856;2022-07-15T08:42:43;101249.97;;;24.90
15544;BMP180;7873;52.230;12.856;2022-07-15T08:45:14;101254.34;;;24.91
15544;BMP180;7873;52.230;12.856;2022-07-15T08:47:43;101253.53;;;24.91
15544;BMP180;7873;52.230;12.856;2022-07-15T08:50:14;101263.66;;;24.89
15544;BMP180;7873;52.230;12.856;2022-07-15T08:52:42;101265.50;;;24.88
15544;BMP180;7873;52.230;12.856;2022-07-15T08:55:11;101250.53;;;24.86
15544;BMP180;7873;52.230;12.856;2022-07-15T08:57:38;101258.13;;;24.82
15544;BMP180;7873;52.230;12.856;2022-07-15T09:00:06;101253.41;;;24.84
15544;BMP180;7873;52.230;12.856;2022-07-15T09:02:37;101261.31;;;24.86
15544;BMP180;7873;52.230;12.856;2022-07-15T09:05:22;101261.13;;;24.87
15544;BMP180;7873;52.230;12.856;2022-07-15T09:07:51;101255.06;;;24.85
15544;BMP180;7873;52.230;12.856;2022-07-15T09:10:19;101258.78;;;24.84
15544;BMP180;7873;52.230;12.856;2022-07-15T09:12:48;101257.47;;;24.80
15544;BMP180;7873;52.230;12.856;2022-07-15T09:15:31;101257.25;;;24.82
15544;BMP180;7873;52.230;12.856;2022-07-15T09:18:14;101256.13;;;24.76
15544;BMP180;7873;52.230;12.856;2022-07-15T09:20:42;101259.50;;;24.78
15544;BMP180;7873;52.230;12.856;2022-07-15T09:23:11;101254.81;;;24.72
15544;BMP180;7873;52.230;12.856;2022-07-15T09:25:38;101260.66;;;24.76
15544;BMP180;7873;52.230;12.856;2022-07-15T09:28:07;101265.41;;;24.74
15544;BMP180;7873;52.230;12.856;2022-07-15T09:30:35;101268.09;;;24.74
15544;BMP180;7873;52.230;12.856;2022-07-15T09:33:23;101264.72;;;24.72
15544;BMP180;7873;52.230;12.856;2022-07-15T09:36:06;101263.06;;;24.71
15544;BMP180;7873;52.230;12.856;2022-07-15T09:38:37;101264.44;;;24.67
15544;BMP180;7873;52.230;12.856;2022-07-15T09:41:08;101264.72;;;24.72
15544;BMP180;7873;52.230;12.856;2022-07-15T09:43:46;101262.66;;;24.82
15544;BMP180;7873;52.230;12.856;2022-07-15T09:46:13;101265.13;;;24.91
15544;BMP180;7873;52.230;12.856;2022-07-15T09:48:43;101269.47;;;25.00
15544;BMP180;7873;52.230;12.856;2022-07-15T09:51:10;101272.31;;;25.07
15544;BMP180;7873;52.230;12.856;2022-07-15T09:53:38;101261.84;;;25.12
15544;BMP180;7873;52.230;12.856;2022-07-15T09:56:07;101268.41;;;25.09
15544;BMP180;7873;52.230;12.856;2022-07-15T09:58:40;101275.97;;;25.14
15544;BMP180;7873;52.230;12.856;2022-07-15T10:01:08;101282.19;;;25.14
15544;BMP180;7873;52.230;12.856;2022-07-15T10:03:35;101274.94;;;25.15
15544;BMP180;7873;52.230;12.856;2022-07-15T10:06:04;101281.34;;;25.14
15544;BMP180;7873;52.230;12.856;2022-07-15T10:08:32;101288.19;;;24.94
15544;BMP180;7873;52.230;12.856;2022-07-15T10:11:00;101283.16;;;24.91
15544;BMP180;7873;52.230;12.856;2022-07-15T10:17:02;101279.06;;;25.03
15544;BMP180;7873;52.230;12.856;2022-07-15T10:19:45;101283.75;;;25.09
15544;BMP180;7873;52.230;12.856;2022-07-15T10:22:27;101277.88;;;25.05
15544;BMP180;7873;52.230;12.856;2022-07-15T10:25:05;101277.34;;;25.10
15544;BMP180;7873;52.230;12.856;2022-07-15T10:27:55;101282.00;;;25.16
15544;BMP180;7873;52.230;12.856;2022-07-15T10:30:24;101287.09;;;25.19
15544;BMP180;7873;52.230;12.856;2022-07-15T10:33:14;101272.88;;;25.25
15544;BMP180;7873;52.230;12.856;2022-07-15T10:35:44;101267.69;;;25.23
15544;BMP180;7873;52.230;12.856;2022-07-15T10:38:37;101265.00;;;25.23
15544;BMP180;7873;52.230;12.856;2022-07-15T10:41:09;101270.84;;;25.27
15544;BMP180;7873;52.230;12.856;2022-07-15T10:43:39;101264.78;;;25.25
15544;BMP180;7873;52.230;12.856;2022-07-15T10:46:21;101255.00;;;25.32
15544;BMP180;7873;52.230;12.856;2022-07-15T10:48:49;101258.81;;;25.37
15544;BMP180;7873;52.230;12.856;2022-07-15T10:51:43;101262.84;;;25.41
15544;BMP180;7873;52.230;12.856;2022-07-15T10:54:38;101244.50;;;25.37
15544;BMP180;7873;52.230;12.856;2022-07-15T10:57:06;101250.06;;;25.35
15544;BMP180;7873;52.230;12.856;2022-07-15T10:59:35;101248.59;;;25.33
15544;BMP180;7873;52.230;12.856;2022-07-15T11:02:13;101251.44;;;25.31
15544;BMP180;7873;52.230;12.856;2022-07-15T11:04:41;101264.28;;;25.29
15544;BMP180;7873;52.230;12.856;2022-07-15T11:07:26;101260.03;;;25.35
15544;BMP180;7873;52.230;12.856;2022-07-15T11:09:55;101259.00;;;25.36
15544;BMP180;7873;52.230;12.856;2022-07-15T11:12:24;101266.06;;;25.37
15544;BMP180;7873;52.230;12.856;2022-07-15T11:14:53;101259.38;;;25.33
15544;BMP180;7873;52.230;12.856;2022-07-15T11:17:23;101272.19;;;25.31
15544;BMP180;7873;52.230;12.856;2022-07-15T11:19:54;101268.63;;;25.30
15544;BMP180;7873;52.230;12.856;2022-07-15T11:22:22;101268.94;;;25.35
15544;BMP180;7873;52.230;12.856;2022-07-15T11:24:50;101271.28;;;25.38
15544;BMP180;7873;52.230;12.856;2022-07-15T11:27:19;101271.09;;;25.40
15544;BMP180;7873;52.230;12.856;2022-07-15T11:29:48;101264.03;;;25.39
15544;BMP180;7873;52.230;12.856;2022-07-15T11:32:16;101264.84;;;25.39
15544;BMP180;7873;52.230;12.856;2022-07-15T11:34:46;101270.25;;;25.39
15544;BMP180;7873;52.230;12.856;2022-07-15T11:37:13;101282.06;;;25.38
15544;BMP180;7873;52.230;12.856;2022-07-15T11:39:45;101264.56;;;25.34
15544;BMP180;7873;52.230;12.856;2022-07-15T11:42:22;101263.75;;;25.34
15544;BMP180;7873;52.230;12.856;2022-07-15T11:45:08;101255.44;;;25.35
15544;BMP180;7873;52.230;12.856;2022-07-15T11:47:50;101257.78;;;25.38
15544;BMP180;7873;52.230;12.856;2022-07-15T11:50:17;101248.69;;;25.39
15544;BMP180;7873;52.230;12.856;2022-07-15T11:52:45;101262.84;;;25.41
15544;BMP180;7873;52.230;12.856;2022-07-15T11:55:12;101257.47;;;25.41
15544;BMP180;7873;52.230;12.856;2022-07-15T11:57:44;101249.69;;;25.38
15544;BMP180;7873;52.230;12.856;2022-07-15T12:00:12;101250.56;;;25.39
15544;BMP180;7873;52.230;12.856;2022-07-15T12:02:39;101256.78;;;25.39
15544;BMP180;7873;52.230;12.856;2022-07-15T12:05:08;101252.06;;;25.41
15544;BMP180;7873;52.230;12.856;2022-07-15T12:07:41;101241.06;;;25.43
15544;BMP180;7873;52.230;12.856;2022-07-15T12:10:09;101237.56;;;25.42
15544;BMP180;7873;52.230;12.856;2022-07-15T12:12:42;101239.94;;;25.37
15544;BMP180;7873;52.230;12.856;2022-07-15T12:15:09;101251.94;;;25.35
15544;BMP180;7873;52.230;12.856;2022-07-15T12:17:37;101255.31;;;25.29
15544;BMP180;7873;52.230;12.856;2022-07-15T12:20:05;101253.72;;;25.20
15544;BMP180;7873;52.230;12.856;2022-07-15T12:22:32;101258.09;;;25.21
15544;BMP180;7873;52.230;12.856;2022-07-15T12:24:59;101246.25;;;25.30
15544;BMP180;7873;52.230;12.856;2022-07-15T12:27:33;101252.47;;;25.30
15544;BMP180;7873;52.230;12.856;2022-07-15T12:30:03;101264.63;;;25.26
15544;BMP180;7873;52.230;12.856;2022-07-15T12:32:31;101264.28;;;25.29
15544;BMP180;7873;52.230;12.856;2022-07-15T12:34:58;101259.81;;;25.36
15544;BMP180;7873;52.230;12.856;2022-07-15T12:37:27;101262.66;;;25.43
15544;BMP180;7873;52.230;12.856;2022-07-15T12:39:59;101258.56;;;25.47
15544;BMP180;7873;52.230;12.856;2022-07-15T12:42:29;101258.22;;;25.50
15544;BMP180;7873;52.230;12.856;2022-07-15T12:45:08;101265.97;;;25.53
15544;BMP180;7873;52.230;12.856;2022-07-15T12:47:35;101264.75;;;25.55
15544;BMP180;7873;52.230;12.856;2022-07-15T12:50:04;101261.22;;;25.55
15544;BMP180;7873;52.230;12.856;2022-07-15T12:52:33;101260.56;;;25.53
15544;BMP180;7873;52.230;12.856;2022-07-15T12:55:12;101265.47;;;25.49
15544;BMP180;7873;52.230;12.856;2022-07-15T12:57:39;101257.50;;;25.56
15544;BMP180;7873;52.230;12.856;2022-07-15T13:00:12;101260.56;;;25.53
15544;BMP180;7873;52.230;12.856;2022-07-15T13:03:01;101254.31;;;25.52
15544;BMP180;7873;52.230;12.856;2022-07-15T13:05:29;101254.19;;;25.46
15544;BMP180;7873;52.230;12.856;2022-07-15T13:07:56;101250.97;;;25.50
15544;BMP180;7873;52.230;12.856;2022-07-15T13:10:23;101246.22;;;25.52
15544;BMP180;7873;52.230;12.856;2022-07-15T13:12:50;101237.50;;;25.50
15544;BMP180;7873;52.230;12.856;2022-07-15T13:15:18;101239.41;;;25.42
15544;BMP180;7873;52.230;12.856;2022-07-15T13:17:44;101252.72;;;25.43
15544;BMP180;7873;52.230;12.856;2022-07-15T13:20:11;101240.78;;;25.38
15544;BMP180;7873;52.230;12.856;2022-07-15T13:22:39;101238.69;;;25.17
15544;BMP180;7873;52.230;12.856;2022-07-15T13:25:06;101239.75;;;24.86
15544;BMP180;7873;52.230;12.856;2022-07-15T13:27:34;101239.19;;;24.98
15544;BMP180;7873;52.230;12.856;2022-07-15T13:30:00;101246.78;;;25.17
15544;BMP180;7873;52.230;12.856;2022-07-15T13:32:29;101235.75;;;25.35
15544;BMP180;7873;52.230;12.856;2022-07-15T13:34:56;101240.06;;;25.44
15544;BMP180;7873;52.230;12.856;2022-07-15T13:37:22;101236.81;;;25.48
15544;BMP180;7873;52.230;12.856;2022-07-15T13:39:49;101235.44;;;25.52
15544;BMP180;7873;52.230;12.856;2022-07-15T13:42:16;101241.50;;;25.54
15544;BMP180;7873;52.230;12.856;2022-07-15T13:44:43;101239.44;;;25.56
15544;BMP180;7873;52.230;12.856;2022-07-15T13:47:10;101236.75;;;25.56
15544;BMP180;7873;52.230;12.856;2022-07-15T13:49:38;101235.94;;;25.56
15544;BMP180;7873;52.230;12.856;2022-07-15T13:52:23;101239.81;;;25.53
15544;BMP180;7873;52.230;12.856;2022-07-15T13:54:49;101246.72;;;25.56
15544;BMP180;7873;52.230;12.856;2022-07-15T13:57:16;101242.34;;;25.55
15544;BMP180;7873;52.230;12.856;2022-07-15T13:59:43;101239.00;;;25.53
15544;BMP180;7873;52.230;12.856;2022-07-15T14:02:10;101245.38;;;25.52
15544;BMP180;7873;52.230;12.856;2022-07-15T14:04:38;101236.47;;;25.51
15544;BMP180;7873;52.230;12.856;2022-07-15T14:07:04;101245.56;;;25.50
15544;BMP180;7873;52.230;12.856;2022-07-15T14:09:32;101247.41;;;25.50